sensor_id;sensor_type;location;lat;lon;timestamp;P1;durP1;ratioP1;P2;durP2;ratioP2
43363;SDS011;40636;52.424;-1.948;2023-05-20T00:01:13;14.02;;;7.63;;
43363;SDS011;40636;52.424;-1.948;2023-05-20T00:03:40;14.48;;;8.60;;
43363;SDS011;40636;52.424;-1.948;2023-05-20T00:06:10;14.85;;;8.48;;
43363;SDS011;40636;52.424;-1.948;2023-05-20T00:08:36;17.58;;;7.32;;
43363;SDS011;40636;52.424;-1.948;2023-05-20T00:11:03;17.13;;;8.30;;
43363;SDS011;40636;52.424;-1.948;2023-05-20T00:13:30;14.25;;;8.43;;
43363;SDS011;40636;52.424;-1.948;2023-05-20T00:15:57;21.13;;;9.98;;
43363;SDS011;40636;52.424;-1.948;2023-05-20T00:18:24;15.68;;;8.95;;
43363;SDS011;40636;52.424;-1.948;2023-05-20T00:20:50;18.75;;;10.10;;
43363;SDS011;40636;52.424;-1.948;2023-05-20T00:23:19;20.00;;;9.52;;
43363;SDS011;40636;52.424;-1.948;2023-05-20T00:25:46;17.08;;;9.30;;
43363;SDS011;40636;52.424;-1.948;2023-05-20T00:28:13;15.27;;;8.13;;
43363;SDS011;40636;52.424;-1.948;2023-05-20T00:30:44;16.00;;;9.02;;
43363;SDS011;40636;52.424;-1.948;2023-05-20T00:33:11;24.50;;;9.15;;
43363;SDS011;40636;52.424;-1.948;2023-05-20T00:35:38;15.52;;;7.70;;
43363;SDS011;40636;52.424;-1.948;2023-05-20T00:38:04;13.60;;;7.03;;
43363;SDS011;40636;52.424;-1.948;2023-05-20T00:40:31;16.30;;;8.05;;
43363;SDS011;40636;52.424;-1.948;2023-05-20T00:42:58;18.75;;;7.38;;
43363;SDS011;40636;52.424;-1.948;2023-05-20T00:45:24;15.25;;;8.35;;
43363;SDS011;40636;52.424;-1.948;2023-05-20T00:47:51;17.88;;;7.90;;
43363;SDS011;40636;52.424;-1.948;2023-05-20T00:50:18;12.82;;;7.45;;
43363;SDS011;40636;52.424;-1.948;2023-05-20T00:52:46;12.95;;;7.55;;
43363;SDS011;40636;52.424;-1.948;2023-05-20T00:55:13;16.17;;;8.05;;
43363;SDS011;40636;52.424;-1.948;2023-05-20T00:57:40;14.98;;;7.60;;
43363;SDS011;40636;52.424;-1.948;2023-05-20T01:00:07;17.42;;;8.55;;
43363;SDS011;40636;52.424;-1.948;2023-05-20T01:02:36;16.35;;;7.70;;
43363;SDS011;40636;52.424;-1.948;2023-05-20T01:05:03;17.23;;;8.57;;
43363;SDS011;40636;52.424;-1.948;2023-05-20T01:07:30;13.75;;;8.18;;
43363;SDS011;40636;52.424;-1.948;2023-05-20T01:09:57;17.33;;;7.47;;
43363;SDS011;40636;52.424;-1.948;2023-05-20T01:12:26;15.95;;;7.65;;
43363;SDS011;40636;52.424;-1.948;2023-05-20T01:15:07;13.65;;;8.00;;
43363;SDS011;40636;52.424;-1.948;2023-05-20T01:17:38;16.77;;;8.35;;
43363;SDS011;40636;52.424;-1.948;2023-05-20T01:20:10;17.73;;;7.55;;
43363;SDS011;40636;52.424;-1.948;2023-05-20T01:22:49;16.23;;;8.65;;
43363;SDS011;40636;52.424;-1.948;2023-05-20T01:25:18;15.98;;;8.25;;
43363;SDS011;40636;52.424;-1.948;2023-05-20T01:27:46;15.20;;;7.40;;
43363;SDS011;40636;52.424;-1.948;2023-05-20T01:30:14;14.88;;;7.90;;
43363;SDS011;40636;52.424;-1.948;2023-05-20T01:32:43;15.90;;;6.72;;
43363;SDS011;40636;52.424;-1.948;2023-05-20T01:35:15;12.50;;;8.25;;
43363;SDS011;40636;52.424;-1.948;2023-05-20T01:37:43;13.77;;;7.32;;
43363;SDS011;40636;52.424;-1.948;2023-05-20T01:40:12;14.60;;;7.40;;
43363;SDS011;40636;52.424;-1.948;2023-05-20T01:42:41;14.20;;;7.25;;
43363;SDS011;40636;52.424;-1.948;2023-05-20T01:45:09;14.85;;;7.80;;
43363;SDS011;40636;52.424;-1.948;2023-05-20T01:47:36;14.73;;;7.82;;
43363;SDS011;40636;52.424;-1.948;2023-05-20T01:50:03;12.30;;;6.47;;
43363;SDS011;40636;52.424;-1.948;2023-05-20T01:52:30;11.02;;;7.05;;
43363;SDS011;40636;52.424;-1.948;2023-05-20T01:54:57;14.80;;;7.88;;
43363;SDS011;40636;52.424;-1.948;2023-05-20T01:57:27;15.82;;;8.00;;
43363;SDS011;40636;52.424;-1.948;2023-05-20T01:59:56;16.60;;;8.60;;
43363;SDS011;40636;52.424;-1.948;2023-05-20T02:02:25;14.85;;;6.53;;
43363;SDS011;40636;52.424;-1.948;2023-05-20T02:05:06;14.98;;;6.80;;
43363;SDS011;40636;52.424;-1.948;2023-05-20T02:07:34;13.75;;;6.95;;
43363;SDS011;40636;52.424;-1.948;2023-05-20T02:10:00;11.82;;;6.20;;
43363;SDS011;40636;52.424;-1.948;2023-05-20T02:12:27;11.15;;;5.80;;
43363;SDS011;40636;52.424;-1.948;2023-05-20T02:14:54;19.02;;;8.02;;
43363;SDS011;40636;52.424;-1.948;2023-05-20T02:17:21;16.08;;;7.38;;
43363;SDS011;40636;52.424;-1.948;2023-05-20T02:19:47;13.23;;;8.10;;
43363;SDS011;40636;52.424;-1.948;2023-05-20T02:22:14;12.73;;;7.30;;
43363;SDS011;40636;52.424;-1.948;2023-05-20T02:24:44;16.77;;;7.57;;
43363;SDS011;40636;52.424;-1.948;2023-05-20T02:27:11;15.85;;;6.88;;
43363;SDS011;40636;52.424;-1.948;2023-05-20T02:29:38;12.95;;;7.22;;
43363;SDS011;40636;52.424;-1.948;2023-05-20T02:32:07;12.48;;;7.03;;
43363;SDS011;40636;52.424;-1.948;2023-05-20T02:34:34;12.27;;;6.75;;
43363;SDS011;40636;52.424;-1.948;2023-05-20T02:37:01;14.95;;;7.68;;
43363;SDS011;40636;52.424;-1.948;2023-05-20T02:39:33;10.18;;;6.38;;
43363;SDS011;40636;52.424;-1.948;2023-05-20T02:42:00;11.68;;;7.35;;
43363;SDS011;40636;52.424;-1.948;2023-05-20T02:44:29;14.52;;;7.95;;
43363;SDS011;40636;52.424;-1.948;2023-05-20T02:46:56;10.38;;;6.97;;
43363;SDS011;40636;52.424;-1.948;2023-05-20T02:49:23;19.05;;;10.05;;
43363;SDS011;40636;52.424;-1.948;2023-05-20T02:51:49;14.52;;;7.47;;
43363;SDS011;40636;52.424;-1.948;2023-05-20T02:54:16;17.60;;;7.53;;
43363;SDS011;40636;52.424;-1.948;2023-05-20T02:56:43;16.67;;;9.32;;
43363;SDS011;40636;52.424;-1.948;2023-05-20T02:59:10;21.60;;;9.38;;
43363;SDS011;40636;52.424;-1.948;2023-05-20T03:01:40;17.55;;;9.38;;
43363;SDS011;40636;52.424;-1.948;2023-05-20T03:04:08;22.92;;;11.27;;
43363;SDS011;40636;52.424;-1.948;2023-05-20T03:06:35;21.45;;;11.50;;
43363;SDS011;40636;52.424;-1.948;2023-05-20T03:09:03;18.70;;;11.13;;
43363;SDS011;40636;52.424;-1.948;2023-05-20T03:11:31;26.40;;;11.65;;
43363;SDS011;40636;52.424;-1.948;2023-05-20T03:13:57;21.00;;;10.88;;
43363;SDS011;40636;52.424;-1.948;2023-05-20T03:16:24;20.45;;;9.40;;
43363;SDS011;40636;52.424;-1.948;2023-05-20T03:18:53;22.40;;;9.98;;
43363;SDS011;40636;52.424;-1.948;2023-05-20T03:21:20;17.83;;;9.93;;
43363;SDS011;40636;52.424;-1.948;2023-05-20T03:23:50;19.55;;;10.27;;
43363;SDS011;40636;52.424;-1.948;2023-05-20T03:26:19;26.98;;;9.50;;
43363;SDS011;40636;52.424;-1.948;2023-05-20T03:28:51;14.90;;;9.73;;
43363;SDS011;40636;52.424;-1.948;2023-05-20T03:31:18;21.20;;;10.15;;
43363;SDS011;40636;52.424;-1.948;2023-05-20T03:33:52;21.48;;;10.05;;
43363;SDS011;40636;52.424;-1.948;2023-05-20T03:36:19;23.73;;;10.75;;
43363;SDS011;40636;52.424;-1.948;2023-05-20T03:38:58;14.68;;;10.82;;
43363;SDS011;40636;52.424;-1.948;2023-05-20T03:41:28;18.75;;;10.25;;
43363;SDS011;40636;52.424;-1.948;2023-05-20T03:46:42;24.67;;;11.02;;
43363;SDS011;40636;52.424;-1.948;2023-05-20T03:49:19;19.23;;;9.48;;
43363;SDS011;40636;52.424;-1.948;2023-05-20T03:51:46;17.77;;;9.40;;
43363;SDS011;40636;52.424;-1.948;2023-05-20T03:54:13;14.98;;;9.10;;
43363;SDS011;40636;52.424;-1.948;2023-05-20T03:56:42;13.55;;;8.75;;
43363;SDS011;40636;52.424;-1.948;2023-05-20T03:59:09;16.50;;;9.85;;
43363;SDS011;40636;52.424;-1.948;2023-05-20T04:01:35;18.15;;;8.48;;
43363;SDS011;40636;52.424;-1.948;2023-05-20T04:04:10;14.77;;;8.55;;
43363;SDS011;40636;52.424;-1.948;2023-05-20T04:06:39;17.30;;;8.77;;
43363;SDS011;40636;52.424;-1.948;2023-05-20T04:09:05;12.48;;;7.75;;
43363;SDS011;40636;52.424;-1.948;2023-05-20T04:11:33;15.02;;;9.13;;
43363;SDS011;40636;52.424;-1.948;2023-05-20T04:14:01;10.70;;;7.72;;
43363;SDS011;40636;52.424;-1.948;2023-05-20T04:16:28;12.55;;;7.10;;
43363;SDS011;40636;52.424;-1.948;2023-05-20T04:18:57;13.77;;;7.85;;
43363;SDS011;40636;52.424;-1.948;2023-05-20T04:21:36;16.83;;;8.38;;
43363;SDS011;40636;52.424;-1.948;2023-05-20T04:24:04;13.23;;;8.02;;
43363;SDS011;40636;52.424;-1.948;2023-05-20T04:26:36;17.10;;;7.93;;
43363;SDS011;40636;52.424;-1.948;2023-05-20T04:29:04;18.50;;;10.20;;
43363;SDS011;40636;52.424;-1.948;2023-05-20T04:31:33;18.05;;;8.55;;
43363;SDS011;40636;52.424;-1.948;2023-05-20T04:34:02;20.42;;;8.55;;
43363;SDS011;40636;52.424;-1.948;2023-05-20T04:36:29;13.27;;;7.20;;
43363;SDS011;40636;52.424;-1.948;2023-05-20T04:38:56;16.17;;;8.07;;
43363;SDS011;40636;52.424;-1.948;2023-05-20T04:41:25;14.40;;;8.10;;
43363;SDS011;40636;52.424;-1.948;2023-05-20T04:43:55;15.38;;;7.93;;
43363;SDS011;40636;52.424;-1.948;2023-05-20T04:46:27;16.50;;;8.38;;
43363;SDS011;40636;52.424;-1.948;2023-05-20T04:48:57;13.68;;;7.10;;
43363;SDS011;40636;52.424;-1.948;2023-05-20T04:51:24;19.48;;;7.38;;
43363;SDS011;40636;52.424;-1.948;2023-05-20T04:53:55;16.73;;;9.23;;
43363;SDS011;40636;52.424;-1.948;2023-05-20T04:56:30;17.15;;;8.18;;
43363;SDS011;40636;52.424;-1.948;2023-05-20T04:59:12;17.35;;;8.63;;
43363;SDS011;40636;52.424;-1.948;2023-05-20T05:01:41;18.05;;;9.50;;
43363;SDS011;40636;52.424;-1.948;2023-05-20T05:04:09;15.93;;;8.73;;
43363;SDS011;40636;52.424;-1.948;2023-05-20T05:06:36;18.92;;;9.48;;
43363;SDS011;40636;52.424;-1.948;2023-05-20T05:09:03;23.42;;;9.98;;
43363;SDS011;40636;52.424;-1.948;2023-05-20T05:11:31;19.65;;;9.15;;
43363;SDS011;40636;52.424;-1.948;2023-05-20T05:13:57;17.95;;;8.75;;
43363;SDS011;40636;52.424;-1.948;2023-05-20T05:16:24;15.48;;;9.18;;
43363;SDS011;40636;52.424;-1.948;2023-05-20T05:18:51;15.38;;;7.82;;
43363;SDS011;40636;52.424;-1.948;2023-05-20T05:21:18;16.65;;;10.05;;
43363;SDS011;40636;52.424;-1.948;2023-05-20T05:23:45;17.80;;;8.60;;
43363;SDS011;40636;52.424;-1.948;2023-05-20T05:26:11;23.02;;;10.23;;
43363;SDS011;40636;52.424;-1.948;2023-05-20T05:28:40;17.08;;;9.10;;
43363;SDS011;40636;52.424;-1.948;2023-05-20T05:31:08;18.15;;;9.32;;
43363;SDS011;40636;52.424;-1.948;2023-05-20T05:33:35;16.83;;;8.38;;
43363;SDS011;40636;52.424;-1.948;2023-05-20T05:36:02;21.83;;;9.82;;
43363;SDS011;40636;52.424;-1.948;2023-05-20T05:38:30;20.15;;;9.25;;
43363;SDS011;40636;52.424;-1.948;2023-05-20T05:40:57;19.98;;;8.27;;
43363;SDS011;40636;52.424;-1.948;2023-05-20T05:43:23;14.07;;;8.23;;
43363;SDS011;40636;52.424;-1.948;2023-05-20T05:45:50;18.85;;;8.95;;
43363;SDS011;40636;52.424;-1.948;2023-05-20T05:48:17;20.42;;;9.88;;
43363;SDS011;40636;52.424;-1.948;2023-05-20T05:50:44;18.73;;;8.98;;
43363;SDS011;40636;52.424;-1.948;2023-05-20T05:53:11;25.25;;;8.90;;
43363;SDS011;40636;52.424;-1.948;2023-05-20T05:55:38;17.65;;;9.02;;
43363;SDS011;40636;52.424;-1.948;2023-05-20T05:58:05;14.90;;;9.05;;
43363;SDS011;40636;52.424;-1.948;2023-05-20T06:00:32;17.63;;;9.05;;
43363;SDS011;40636;52.424;-1.948;2023-05-20T06:02:59;17.40;;;8.95;;
43363;SDS011;40636;52.424;-1.948;2023-05-20T06:05:26;14.90;;;8.80;;
43363;SDS011;40636;52.424;-1.948;2023-05-20T06:07:55;16.77;;;8.90;;
43363;SDS011;40636;52.424;-1.948;2023-05-20T06:10:21;20.33;;;8.82;;
43363;SDS011;40636;52.424;-1.948;2023-05-20T06:12:48;18.33;;;9.45;;
43363;SDS011;40636;52.424;-1.948;2023-05-20T06:15:15;15.77;;;8.88;;
43363;SDS011;40636;52.424;-1.948;2023-05-20T06:17:42;16.30;;;8.85;;
43363;SDS011;40636;52.424;-1.948;2023-05-20T06:20:08;15.10;;;8.23;;
43363;SDS011;40636;52.424;-1.948;2023-05-20T06:22:36;12.65;;;8.13;;
43363;SDS011;40636;52.424;-1.948;2023-05-20T06:25:03;13.07;;;7.97;;
43363;SDS011;40636;52.424;-1.948;2023-05-20T06:27:29;18.45;;;8.82;;
43363;SDS011;40636;52.424;-1.948;2023-05-20T06:29:56;17.73;;;8.10;;
43363;SDS011;40636;52.424;-1.948;2023-05-20T06:32:23;15.07;;;7.88;;
43363;SDS011;40636;52.424;-1.948;2023-05-20T06:34:50;16.48;;;9.00;;
43363;SDS011;40636;52.424;-1.948;2023-05-20T06:37:16;16.90;;;8.45;;
43363;SDS011;40636;52.424;-1.948;2023-05-20T06:39:43;18.13;;;8.38;;
43363;SDS011;40636;52.424;-1.948;2023-05-20T06:42:13;14.20;;;8.23;;
43363;SDS011;40636;52.424;-1.948;2023-05-20T06:44:40;15.68;;;7.25;;
43363;SDS011;40636;52.424;-1.948;2023-05-20T06:47:06;15.15;;;7.30;;
43363;SDS011;40636;52.424;-1.948;2023-05-20T06:49:33;12.60;;;7.32;;
43363;SDS011;40636;52.424;-1.948;2023-05-20T06:52:00;16.17;;;8.00;;
43363;SDS011;40636;52.424;-1.948;2023-05-20T06:54:27;23.63;;;8.77;;
43363;SDS011;40636;52.424;-1.948;2023-05-20T06:56:53;15.63;;;7.50;;
43363;SDS011;40636;52.424;-1.948;2023-05-20T06:59:20;16.33;;;7.65;;
43363;SDS011;40636;52.424;-1.948;2023-05-20T07:01:47;17.63;;;8.05;;
43363;SDS011;40636;52.424;-1.948;2023-05-20T07:04:16;24.98;;;8.68;;
43363;SDS011;40636;52.424;-1.948;2023-05-20T07:06:43;12.73;;;6.50;;
43363;SDS011;40636;52.424;-1.948;2023-05-20T07:09:10;13.18;;;6.97;;
43363;SDS011;40636;52.424;-1.948;2023-05-20T07:11:44;18.70;;;7.15;;
43363;SDS011;40636;52.424;-1.948;2023-05-20T07:14:17;15.35;;;7.85;;
43363;SDS011;40636;52.424;-1.948;2023-05-20T07:16:45;10.65;;;6.85;;
43363;SDS011;40636;52.424;-1.948;2023-05-20T07:19:11;13.52;;;6.70;;
43363;SDS011;40636;52.424;-1.948;2023-05-20T07:21:38;10.70;;;5.25;;
43363;SDS011;40636;52.424;-1.948;2023-05-20T07:24:06;11.23;;;6.00;;
43363;SDS011;40636;52.424;-1.948;2023-05-20T07:26:32;15.13;;;6.00;;
43363;SDS011;40636;52.424;-1.948;2023-05-20T07:29:04;14.30;;;6.18;;
43363;SDS011;40636;52.424;-1.948;2023-05-20T07:31:40;10.82;;;5.63;;
43363;SDS011;40636;52.424;-1.948;2023-05-20T07:34:08;14.57;;;6.53;;
43363;SDS011;40636;52.424;-1.948;2023-05-20T07:36:34;11.98;;;6.20;;
43363;SDS011;40636;52.424;-1.948;2023-05-20T07:39:02;10.85;;;6.32;;
43363;SDS011;40636;52.424;-1.948;2023-05-20T07:41:36;8.75;;;5.47;;
43363;SDS011;40636;52.424;-1.948;2023-05-20T07:44:04;10.07;;;5.57;;
43363;SDS011;40636;52.424;-1.948;2023-05-20T07:46:40;10.93;;;5.18;;
43363;SDS011;40636;52.424;-1.948;2023-05-20T07:49:07;19.92;;;6.15;;
43363;SDS011;40636;52.424;-1.948;2023-05-20T07:51:35;12.30;;;4.30;;
43363;SDS011;40636;52.424;-1.948;2023-05-20T07:54:06;10.82;;;5.07;;
43363;SDS011;40636;52.424;-1.948;2023-05-20T07:56:35;10.27;;;4.22;;
43363;SDS011;40636;52.424;-1.948;2023-05-20T07:59:02;9.23;;;4.70;;
43363;SDS011;40636;52.424;-1.948;2023-05-20T08:01:29;12.32;;;5.55;;
43363;SDS011;40636;52.424;-1.948;2023-05-20T08:06:33;11.27;;;4.97;;
43363;SDS011;40636;52.424;-1.948;2023-05-20T08:09:05;11.77;;;5.50;;
43363;SDS011;40636;52.424;-1.948;2023-05-20T08:11:33;9.75;;;4.82;;
43363;SDS011;40636;52.424;-1.948;2023-05-20T08:14:02;6.28;;;4.20;;
43363;SDS011;40636;52.424;-1.948;2023-05-20T08:16:47;9.80;;;4.93;;
43363;SDS011;40636;52.424;-1.948;2023-05-20T08:19:16;9.82;;;4.60;;
43363;SDS011;40636;52.424;-1.948;2023-05-20T08:21:43;8.48;;;3.95;;
43363;SDS011;40636;52.424;-1.948;2023-05-20T08:24:24;7.22;;;4.07;;
43363;SDS011;40636;52.424;-1.948;2023-05-20T08:26:53;14.85;;;5.63;;
43363;SDS011;40636;52.424;-1.948;2023-05-20T08:29:21;7.03;;;4.38;;
43363;SDS011;40636;52.424;-1.948;2023-05-20T08:31:50;7.93;;;4.72;;
43363;SDS011;40636;52.424;-1.948;2023-05-20T08:34:30;9.73;;;4.35;;
43363;SDS011;40636;52.424;-1.948;2023-05-20T08:37:00;9.93;;;4.28;;
43363;SDS011;40636;52.424;-1.948;2023-05-20T08:39:27;7.50;;;4.28;;
43363;SDS011;40636;52.424;-1.948;2023-05-20T08:41:54;11.15;;;4.80;;
43363;SDS011;40636;52.424;-1.948;2023-05-20T08:44:21;10.80;;;4.85;;
43363;SDS011;40636;52.424;-1.948;2023-05-20T08:46:52;14.13;;;4.78;;
43363;SDS011;40636;52.424;-1.948;2023-05-20T08:49:20;8.60;;;4.75;;
43363;SDS011;40636;52.424;-1.948;2023-05-20T08:51:47;8.77;;;4.30;;
43363;SDS011;40636;52.424;-1.948;2023-05-20T08:54:14;11.85;;;4.95;;
43363;SDS011;40636;52.424;-1.948;2023-05-20T08:56:43;9.93;;;4.65;;
43363;SDS011;40636;52.424;-1.948;2023-05-20T08:59:10;9.13;;;4.22;;
43363;SDS011;40636;52.424;-1.948;2023-05-20T09:01:40;14.18;;;5.13;;
43363;SDS011;40636;52.424;-1.948;2023-05-20T09:04:09;9.00;;;3.60;;
43363;SDS011;40636;52.424;-1.948;2023-05-20T09:06:43;9.98;;;3.60;;
43363;SDS011;40636;52.424;-1.948;2023-05-20T09:09:12;10.20;;;4.60;;
43363;SDS011;40636;52.424;-1.948;2023-05-20T09:11:40;9.13;;;3.67;;
43363;SDS011;40636;52.424;-1.948;2023-05-20T09:14:08;9.70;;;4.47;;
43363;SDS011;40636;52.424;-1.948;2023-05-20T09:16:35;7.28;;;3.63;;
43363;SDS011;40636;52.424;-1.948;2023-05-20T09:19:05;8.52;;;3.83;;
43363;SDS011;40636;52.424;-1.948;2023-05-20T09:21:45;8.05;;;3.55;;
43363;SDS011;40636;52.424;-1.948;2023-05-20T09:24:12;5.30;;;3.00;;
43363;SDS011;40636;52.424;-1.948;2023-05-20T09:26:42;6.93;;;3.70;;
43363;SDS011;40636;52.424;-1.948;2023-05-20T09:29:10;7.55;;;3.88;;
43363;SDS011;40636;52.424;-1.948;2023-05-20T09:31:37;8.20;;;3.90;;
43363;SDS011;40636;52.424;-1.948;2023-05-20T09:34:05;8.57;;;4.22;;
43363;SDS011;40636;52.424;-1.948;2023-05-20T09:36:32;9.02;;;3.38;;
43363;SDS011;40636;52.424;-1.948;2023-05-20T09:39:01;7.80;;;3.88;;
43363;SDS011;40636;52.424;-1.948;2023-05-20T09:41:32;9.82;;;4.50;;
43363;SDS011;40636;52.424;-1.948;2023-05-20T09:44:03;7.18;;;4.25;;
43363;SDS011;40636;52.424;-1.948;2023-05-20T09:46:33;9.02;;;4.45;;
43363;SDS011;40636;52.424;-1.948;2023-05-20T09:49:01;6.60;;;3.38;;
43363;SDS011;40636;52.424;-1.948;2023-05-20T09:51:30;6.47;;;3.67;;
43363;SDS011;40636;52.424;-1.948;2023-05-20T09:53:57;8.65;;;3.22;;
43363;SDS011;40636;52.424;-1.948;2023-05-20T09:56:25;5.40;;;3.38;;
43363;SDS011;40636;52.424;-1.948;2023-05-20T09:58:53;8.18;;;3.17;;
43363;SDS011;40636;52.424;-1.948;2023-05-20T10:01:24;6.85;;;3.45;;
43363;SDS011;40636;52.424;-1.948;2023-05-20T10:03:51;6.05;;;3.83;;
43363;SDS011;40636;52.424;-1.948;2023-05-20T10:06:31;6.35;;;3.15;;
43363;SDS011;40636;52.424;-1.948;2023-05-20T10:12:19;3.58;;;3.00;;
43363;SDS011;40636;52.424;-1.948;2023-05-20T10:17:47;8.80;;;4.68;;
43363;SDS011;40636;52.424;-1.948;2023-05-20T10:20:16;5.88;;;3.85;;
43363;SDS011;40636;52.424;-1.948;2023-05-20T10:22:43;5.95;;;3.13;;
43363;SDS011;40636;52.424;-1.948;2023-05-20T10:25:24;3.63;;;2.70;;
43363;SDS011;40636;52.424;-1.948;2023-05-20T10:28:03;4.78;;;3.45;;
43363;SDS011;40636;52.424;-1.948;2023-05-20T10:30:33;8.05;;;2.75;;
43363;SDS011;40636;52.424;-1.948;2023-05-20T10:33:04;5.63;;;3.00;;
43363;SDS011;40636;52.424;-1.948;2023-05-20T10:35:32;5.82;;;2.78;;
43363;SDS011;40636;52.424;-1.948;2023-05-20T10:38:09;5.55;;;2.83;;
43363;SDS011;40636;52.424;-1.948;2023-05-20T10:40:37;5.65;;;3.42;;
43363;SDS011;40636;52.424;-1.948;2023-05-20T10:43:11;9.82;;;3.30;;
43363;SDS011;40636;52.424;-1.948;2023-05-20T10:45:52;9.57;;;2.78;;
43363;SDS011;40636;52.424;-1.948;2023-05-20T10:48:31;6.32;;;3.25;;
43363;SDS011;40636;52.424;-1.948;2023-05-20T10:50:59;6.75;;;3.30;;
43363;SDS011;40636;52.424;-1.948;2023-05-20T10:53:37;9.52;;;4.50;;
43363;SDS011;40636;52.424;-1.948;2023-05-20T10:56:08;5.35;;;3.28;;
43363;SDS011;40636;52.424;-1.948;2023-05-20T10:58:43;8.57;;;3.88;;
43363;SDS011;40636;52.424;-1.948;2023-05-20T11:01:09;7.18;;;3.47;;
43363;SDS011;40636;52.424;-1.948;2023-05-20T11:03:37;7.53;;;3.78;;
43363;SDS011;40636;52.424;-1.948;2023-05-20T11:06:18;11.60;;;4.07;;
43363;SDS011;40636;52.424;-1.948;2023-05-20T11:08:44;6.50;;;3.90;;
43363;SDS011;40636;52.424;-1.948;2023-05-20T11:11:11;7.22;;;3.55;;
43363;SDS011;40636;52.424;-1.948;2023-05-20T11:13:39;4.82;;;3.05;;
43363;SDS011;40636;52.424;-1.948;2023-05-20T11:16:06;6.43;;;3.03;;
43363;SDS011;40636;52.424;-1.948;2023-05-20T11:18:34;9.15;;;4.22;;
43363;SDS011;40636;52.424;-1.948;2023-05-20T11:21:01;7.78;;;3.60;;
43363;SDS011;40636;52.424;-1.948;2023-05-20T11:23:28;9.68;;;3.70;;
43363;SDS011;40636;52.424;-1.948;2023-05-20T11:25:56;7.40;;;2.78;;
43363;SDS011;40636;52.424;-1.948;2023-05-20T11:28:23;7.65;;;3.97;;
43363;SDS011;40636;52.424;-1.948;2023-05-20T11:30:51;7.35;;;2.90;;
43363;SDS011;40636;52.424;-1.948;2023-05-20T11:33:20;7.05;;;3.30;;
43363;SDS011;40636;52.424;-1.948;2023-05-20T11:35:52;8.52;;;3.83;;
43363;SDS011;40636;52.424;-1.948;2023-05-20T11:38:22;7.20;;;3.15;;
43363;SDS011;40636;52.424;-1.948;2023-05-20T11:40:53;7.28;;;3.42;;
43363;SDS011;40636;52.424;-1.948;2023-05-20T11:43:22;9.25;;;3.25;;
43363;SDS011;40636;52.424;-1.948;2023-05-20T11:45:54;5.07;;;2.47;;
43363;SDS011;40636;52.424;-1.948;2023-05-20T11:48:25;6.68;;;2.70;;
43363;SDS011;40636;52.424;-1.948;2023-05-20T11:50:54;11.27;;;2.50;;
43363;SDS011;40636;52.424;-1.948;2023-05-20T11:53:22;5.18;;;2.63;;
43363;SDS011;40636;52.424;-1.948;2023-05-20T11:55:51;3.85;;;2.58;;
43363;SDS011;40636;52.424;-1.948;2023-05-20T11:58:24;4.22;;;2.08;;
43363;SDS011;40636;52.424;-1.948;2023-05-20T12:00:54;4.70;;;2.53;;
43363;SDS011;40636;52.424;-1.948;2023-05-20T12:03:39;3.72;;;2.35;;
43363;SDS011;40636;52.424;-1.948;2023-05-20T12:06:10;4.63;;;2.47;;
43363;SDS011;40636;52.424;-1.948;2023-05-20T12:08:39;4.35;;;2.38;;
43363;SDS011;40636;52.424;-1.948;2023-05-20T12:11:05;6.07;;;2.58;;
43363;SDS011;40636;52.424;-1.948;2023-05-20T12:13:33;4.13;;;2.63;;
43363;SDS011;40636;52.424;-1.948;2023-05-20T12:16:01;10.20;;;2.60;;
43363;SDS011;40636;52.424;-1.948;2023-05-20T12:18:31;5.10;;;2.35;;
43363;SDS011;40636;52.424;-1.948;2023-05-20T12:21:05;4.72;;;2.28;;
43363;SDS011;40636;52.424;-1.948;2023-05-20T12:23:32;4.18;;;2.15;;
43363;SDS011;40636;52.424;-1.948;2023-05-20T12:25:59;4.40;;;2.33;;
43363;SDS011;40636;52.424;-1.948;2023-05-20T12:34:35;3.70;;;2.60;;
43363;SDS011;40636;52.424;-1.948;2023-05-20T12:37:09;5.25;;;3.17;;
43363;SDS011;40636;52.424;-1.948;2023-05-20T12:39:36;8.65;;;2.95;;
43363;SDS011;40636;52.424;-1.948;2023-05-20T12:42:10;6.80;;;2.95;;
43363;SDS011;40636;52.424;-1.948;2023-05-20T12:44:37;5.65;;;3.42;;
43363;SDS011;40636;52.424;-1.948;2023-05-20T12:47:03;6.13;;;2.90;;
43363;SDS011;40636;52.424;-1.948;2023-05-20T12:49:30;5.97;;;3.40;;
43363;SDS011;40636;52.424;-1.948;2023-05-20T12:51:57;7.50;;;3.03;;
43363;SDS011;40636;52.424;-1.948;2023-05-20T12:54:28;5.07;;;3.35;;
43363;SDS011;40636;52.424;-1.948;2023-05-20T12:56:55;5.47;;;2.88;;
43363;SDS011;40636;52.424;-1.948;2023-05-20T12:59:22;4.43;;;2.72;;
43363;SDS011;40636;52.424;-1.948;2023-05-20T13:01:49;4.50;;;3.15;;
43363;SDS011;40636;52.424;-1.948;2023-05-20T13:04:20;8.13;;;3.17;;
43363;SDS011;40636;52.424;-1.948;2023-05-20T13:06:48;8.00;;;3.15;;
43363;SDS011;40636;52.424;-1.948;2023-05-20T13:09:15;6.88;;;3.78;;
43363;SDS011;40636;52.424;-1.948;2023-05-20T13:11:41;5.07;;;3.25;;
43363;SDS011;40636;52.424;-1.948;2023-05-20T13:14:30;5.40;;;3.60;;
43363;SDS011;40636;52.424;-1.948;2023-05-20T13:16:59;8.63;;;3.10;;
43363;SDS011;40636;52.424;-1.948;2023-05-20T13:19:31;6.05;;;3.30;;
43363;SDS011;40636;52.424;-1.948;2023-05-20T13:22:05;6.75;;;3.63;;
43363;SDS011;40636;52.424;-1.948;2023-05-20T13:24:32;8.90;;;3.38;;
43363;SDS011;40636;52.424;-1.948;2023-05-20T13:27:00;6.00;;;3.20;;
43363;SDS011;40636;52.424;-1.948;2023-05-20T13:29:31;5.78;;;3.40;;
43363;SDS011;40636;52.424;-1.948;2023-05-20T13:32:02;8.45;;;3.30;;
43363;SDS011;40636;52.424;-1.948;2023-05-20T13:34:37;7.18;;;3.67;;
43363;SDS011;40636;52.424;-1.948;2023-05-20T13:37:06;7.35;;;5.20;;
43363;SDS011;40636;52.424;-1.948;2023-05-20T13:39:36;9.30;;;4.57;;
43363;SDS011;40636;52.424;-1.948;2023-05-20T13:42:03;7.13;;;4.40;;
43363;SDS011;40636;52.424;-1.948;2023-05-20T13:44:30;6.53;;;4.40;;
43363;SDS011;40636;52.424;-1.948;2023-05-20T13:46:58;6.80;;;3.60;;
43363;SDS011;40636;52.424;-1.948;2023-05-20T13:49:25;8.57;;;4.18;;
43363;SDS011;40636;52.424;-1.948;2023-05-20T13:51:52;6.35;;;4.13;;
43363;SDS011;40636;52.424;-1.948;2023-05-20T13:54:19;10.85;;;4.13;;
43363;SDS011;40636;52.424;-1.948;2023-05-20T13:56:47;5.75;;;3.38;;
43363;SDS011;40636;52.424;-1.948;2023-05-20T13:59:14;7.15;;;4.18;;
43363;SDS011;40636;52.424;-1.948;2023-05-20T14:01:41;13.23;;;5.55;;
43363;SDS011;40636;52.424;-1.948;2023-05-20T14:04:11;9.35;;;5.25;;
43363;SDS011;40636;52.424;-1.948;2023-05-20T14:06:44;9.10;;;4.00;;
43363;SDS011;40636;52.424;-1.948;2023-05-20T14:09:11;6.60;;;4.05;;
43363;SDS011;40636;52.424;-1.948;2023-05-20T14:12:04;7.80;;;4.38;;
43363;SDS011;40636;52.424;-1.948;2023-05-20T14:14:47;11.18;;;4.80;;
43363;SDS011;40636;52.424;-1.948;2023-05-20T14:17:15;8.07;;;4.40;;
43363;SDS011;40636;52.424;-1.948;2023-05-20T14:19:45;11.40;;;4.95;;
43363;SDS011;40636;52.424;-1.948;2023-05-20T14:22:13;7.40;;;4.07;;
43363;SDS011;40636;52.424;-1.948;2023-05-20T14:24:41;8.75;;;3.67;;
43363;SDS011;40636;52.424;-1.948;2023-05-20T14:27:09;6.82;;;3.90;;
43363;SDS011;40636;52.424;-1.948;2023-05-20T14:29:45;9.23;;;4.43;;
43363;SDS011;40636;52.424;-1.948;2023-05-20T14:32:17;8.88;;;4.53;;
43363;SDS011;40636;52.424;-1.948;2023-05-20T14:35:07;5.63;;;3.55;;
43363;SDS011;40636;52.424;-1.948;2023-05-20T14:37:35;7.15;;;4.00;;
43363;SDS011;40636;52.424;-1.948;2023-05-20T14:40:14;4.80;;;3.10;;
43363;SDS011;40636;52.424;-1.948;2023-05-20T14:42:41;4.78;;;3.08;;
43363;SDS011;40636;52.424;-1.948;2023-05-20T14:45:57;11.90;;;3.42;;
43363;SDS011;40636;52.424;-1.948;2023-05-20T14:48:31;7.47;;;3.40;;
43363;SDS011;40636;52.424;-1.948;2023-05-20T14:51:00;5.13;;;3.13;;
43363;SDS011;40636;52.424;-1.948;2023-05-20T14:53:27;5.13;;;3.50;;
43363;SDS011;40636;52.424;-1.948;2023-05-20T14:55:53;5.55;;;3.17;;